Nearby METAR Reports

 

KTEB - Teterboro, New Jersey, USA
Distance from station: ENE 2mi, 4km
Updated: 09/17/2019 8:51pm
Clear
Clear
 Wind from N
Wind: N 3 mph , 6 km/h
Temperature: 68°F , 20°C
Dew Point: 41°F , 5°C
Humidity: 38%
Barometer: 30.13 inHg , 1020.3 hPa
Clouds: Clear
Visibility: 10 miles , 16 km
2019/09/18 00:51 KTEB 180051Z 01003KT 10SM CLR 20/05 A3013 RMK AO2 SLP202 T02000050
KNYC - Nyc/Central Park, New York, USA
Distance from station: SE 8mi, 13km
Updated: 09/17/2019 8:51pm
Clear
Clear
 Wind from calm
Wind: Calm
Temperature: 66°F , 19°C
Dew Point: 46°F , 8°C
Humidity: 49%
Barometer: 30.16 inHg , 1021.3 hPa
Clouds: Clear
Visibility: 10 miles , 16 km
2019/09/18 00:51 KNYC 180051Z AUTO 00000KT 10SM CLR 19/08 A3016 RMK AO2 SLP205 T01940083 $
 
KCDW - Caldwell, New Jersey, USA
Distance from station: WNW 10mi, 17km
Updated: 09/17/2019 8:53pm
Clear
Clear
 Wind from calm
Wind: Calm
Temperature: 64°F , 18°C
Dew Point: 43°F , 6°C
Humidity: 46%
Barometer: 30.15 inHg , 1021 hPa
Clouds: Clear
Visibility: 10 miles , 16 km
2019/09/18 00:53 KCDW 180053Z 00000KT 10SM CLR 18/06 A3015 RMK AO2 SLP214 T01830061
KLGA - Nyc/La Guardia, New York, USA
Distance from station: ESE 12mi, 19km
Updated: 09/17/2019 8:51pm
Clear
Clear
 Wind from ESE
Wind: ESE 8 mph , 13 km/h
Temperature: 70°F , 21°C
Dew Point: 46°F , 8°C
Humidity: 43%
Barometer: 30.13 inHg , 1020.3 hPa
Clouds: Clear
Visibility: 10 miles , 16 km
2019/09/18 00:51 KLGA 180051Z 11007KT 10SM CLR 21/08 A3013 RMK AO2 SLP202 T02110078
 
KEWR - Newark, New Jersey, USA
Distance from station: SSW 12mi, 20km
Updated: 09/17/2019 8:51pm
Few Clouds
Few Clouds
 Wind from NNE
Wind: NNE 8 mph , 13 km/h
Temperature: 66°F , 19°C
Dew Point: 43°F , 6°C
Humidity: 43%
Barometer: 30.13 inHg , 1020.3 hPa
Clouds: Few Clouds
Visibility: 10 miles , 16 km
Cloud details: Few Clouds 25000 ft
2019/09/18 00:51 KEWR 180051Z 02007KT 10SM FEW250 19/06 A3013 RMK AO2 SLP203 T01940061
KMMU - Morristown Muni, New Jersey, USA
Distance from station: WSW 18mi, 29km
Updated: 09/17/2019 8:52pm
Clear
Clear
 Wind from calm
Wind: Calm
Temperature: 55°F , 13°C
Dew Point: 54°F , 12°C
Humidity: 94%
Barometer: 30.15 inHg , 1021 hPa
Clouds: Clear
Visibility: 10 miles , 16 km
2019/09/18 00:52 KMMU 180052Z 00000KT 10SM SKC 13/12 A3015
 
KJFK - Nyc/Jfk Arpt, New York, USA
Distance from station: SE 23mi, 36km
Updated: 09/17/2019 8:51pm
Clear
Clear
 Wind from E
Wind: E 3 mph , 6 km/h
Temperature: 64°F , 18°C
Dew Point: 48°F , 9°C
Humidity: 56%
Barometer: 30.15 inHg , 1021 hPa
Clouds: Clear
Visibility: 10 miles , 16 km
2019/09/18 00:51 KJFK 180051Z 09003KT 10SM CLR 18/09 A3015 RMK AO2 SLP207 T01830094
KHPN - White Plains, New York, USA
Distance from station: NE 25mi, 40km
Updated: 09/17/2019 8:56pm
Clear
Clear
 Wind from NE
Wind: NE 5 mph , 7 km/h
Temperature: 63°F , 17°C
Dew Point: 43°F , 6°C
Humidity: 49%
Barometer: 30.14 inHg , 1020.7 hPa
Clouds: Clear
Visibility: 10 miles , 16 km
2019/09/18 00:56 KHPN 180056Z 04004KT 10SM CLR 17/06 A3014 RMK AO2 SLP204 T01720061
 
KSMQ - Somerville, New Jersey, USA
Distance from station: WSW 34mi, 55km
Updated: 09/17/2019 8:53pm
Clear
Clear
 Wind from calm
Wind: Calm
Temperature: 57°F , 14°C
Dew Point: 54°F , 12°C
Humidity: 88%
Barometer: 30.12 inHg , 1020 hPa
Clouds: Clear
Visibility: 10 miles , 16 km
2019/09/18 00:53 KSMQ 180053Z AUTO 00000KT 10SM CLR 14/12 A3012 RMK AO2 SLP200 T01440117
K12N - Andover, New Jersey, USA
Distance from station: WNW 36mi, 57km
Updated: 09/17/2019 8:54pm

 Wind from calm
Wind: Calm
Temperature: 55°F , 13°C
Dew Point: 54°F , 12°C
Humidity: 94%
Barometer: 30.16 inHg , 1021.3 hPa
2019/09/18 00:54 K12N 180054Z AUTO 00000KT 13/12 A3016 RMK AO1 SLP212 T01330122
 
KFRG - Farmingdale, New York, USA
Distance from station: ESE 36mi, 58km
Updated: 09/17/2019 8:53pm
Partly cloudy
Partly cloudy
 Wind from E
Wind: E 5 mph , 7 km/h
Temperature: 64°F , 18°C
Dew Point: 48°F , 9°C
Humidity: 56%
Barometer: 30.15 inHg , 1021 hPa
Clouds: Partly cloudy
Visibility: 10 miles , 16 km
Cloud details: Partly cloudy 6000 ft
2019/09/18 00:53 KFRG 180053Z 10004KT 10SM SCT060 18/09 A3015 RMK AO2 SLP208 T01830094
KFWN - Sussex, New Jersey, USA
Distance from station: NW 37mi, 60km
Updated: 09/17/2019 8:53pm
Clear
Clear
 Wind from calm
Wind: Calm
Temperature: 57°F , 14°C
Dew Point: 50°F , 10°C
Humidity: 77%
Barometer: 30.16 inHg , 1021.3 hPa
Clouds: Clear
Visibility: 10 miles , 16 km
2019/09/18 00:53 KFWN 180053Z AUTO 00000KT 10SM CLR 14/10 A3016 RMK AO2 SLP211 T01390100
 
KSWF - Newburgh/Stewart, New York, USA
Distance from station: 0 45mi, 72km
Updated: 09/17/2019 8:45pm
Clear
Clear
 Wind from calm
Wind: Calm
Temperature: 57°F , 14°C
Dew Point: 50°F , 10°C
Humidity: 77%
Barometer: 30.16 inHg , 1021.3 hPa
Clouds: Clear
Visibility: 10 miles , 16 km
2019/09/18 00:45 KSWF 180045Z 00000KT 10SM SKC 14/10 A3016
KMGJ - Montgomery, New York, USA
Distance from station: NNW 47mi, 75km
Updated: 09/17/2019 8:54pm
Clear
Clear
 Wind from calm
Wind: Calm
Temperature: 54°F , 12°C
Dew Point: 48°F , 9°C
Humidity: 82%
Barometer: 30.15 inHg , 1021 hPa
Clouds: Clear
Visibility: 10 miles , 16 km
2019/09/18 00:54 KMGJ 180054Z AUTO 00000KT 10SM CLR 12/09 A3015 RMK AO2 SLP210 T01170094
 
KBLM - Belmar/Farmdale, New Jersey, USA
Distance from station: S 47mi, 76km
Updated: 09/17/2019 8:56pm
Clear
Clear
 Wind from E
Wind: E 3 mph , 6 km/h
Temperature: 63°F , 17°C
Dew Point: 52°F , 11°C
Humidity: 68%
Barometer: 30.15 inHg , 1021 hPa
Clouds: Clear
Visibility: 10 miles , 16 km
2019/09/18 00:56 KBLM 180056Z AUTO 09003KT 10SM CLR 17/11 A3015 RMK AO2 SLP209 T01720111
KDXR - Danbury, Connecticut, USA
Distance from station: NE 47mi, 76km
Updated: 09/17/2019 8:53pm
Clear
Clear
 Wind from calm
Wind: Calm
Temperature: 54°F , 12°C
Dew Point: 46°F , 8°C
Humidity: 77%
Barometer: 30.16 inHg , 1021.3 hPa
Clouds: Clear
Visibility: 10 miles , 16 km
2019/09/18 00:53 KDXR 180053Z 00000KT 10SM CLR 12/08 A3016 RMK AO2 SLP213 T01220078
 
KISP - Islip, New York, USA
Distance from station: E 52mi, 83km
Updated: 09/17/2019 8:56pm
Few Clouds
Few Clouds
 Wind from E
Wind: E 7 mph , 11 km/h
Temperature: 63°F , 17°C
Dew Point: 54°F , 12°C
Humidity: 73%
Barometer: 30.15 inHg , 1021 hPa
Clouds: Few Clouds
Visibility: 10 miles , 16 km
Cloud details: Few Clouds 7000 ft
2019/09/18 00:56 KISP 180056Z 10006KT 10SM FEW070 17/12 A3015 RMK AO2 SLP208 T01670117
KBDR - Bridgeport, Connecticut, USA
Distance from station: ENE 54mi, 87km
Updated: 09/17/2019 8:52pm
Clear
Clear
 Wind from NNE
Wind: NNE 3 mph , 6 km/h
Temperature: 66°F , 19°C
Dew Point: 50°F , 10°C
Humidity: 56%
Barometer: 30.14 inHg , 1020.7 hPa
Clouds: Clear
Visibility: 10 miles , 16 km
2019/09/18 00:52 KBDR 180052Z 03003KT 10SM CLR 19/10 A3014 RMK AO2 SLP207 T01890100
 
KTTN - Trenton, New Jersey, USA
Distance from station: SW 55mi, 88km
Updated: 09/17/2019 8:53pm
Clear
Clear
 Wind from NE
Wind: NE 3 mph , 6 km/h
Temperature: 63°F , 17°C
Dew Point: 46°F , 8°C
Humidity: 56%
Barometer: 30.13 inHg , 1020.3 hPa
Clouds: Clear
Visibility: 10 miles , 16 km
2019/09/18 00:53 KTTN 180053Z 04003KT 10SM CLR 17/08 A3013 RMK AO2 SLP195 T01720078
KPOU - Poughkeepsie, New York, USA
Distance from station: N 55mi, 89km
Updated: 09/17/2019 8:53pm
Clear
Clear
 Wind from calm
Wind: Calm
Temperature: 54°F , 12°C
Dew Point: 48°F , 9°C
Humidity: 82%
Barometer: 30.14 inHg , 1020.7 hPa
Clouds: Clear
Visibility: 10 miles , 16 km
2019/09/18 00:53 KPOU 180053Z 00000KT 10SM CLR 12/09 A3014 RMK AO2 SLP204 T01220089
 
KNEL - Lakehurst Nas, New Jersey, USA
Distance from station: SSW 59mi, 95km
Updated: 09/17/2019 9:00pm
Clear
Clear
 Wind from calm
Wind: Calm
Temperature: 57°F , 14°C
Dew Point: 52°F , 11°C
Humidity: 82%
Barometer: 30.13 inHg , 1020.3 hPa
Clouds: Clear
Visibility: 10 miles , 16 km
2019/09/18 01:00 KNEL 180100Z AUTO 00000KT 10SM CLR 14/11 A3013 RMK AO2 SLP201 T01390111 $
KWRI - Wrightst/Mcguire, New Jersey, USA
Distance from station: SSW 63mi, 102km
Updated: 09/17/2019 8:56pm
Clear
Clear
 Wind from calm
Wind: Calm
Temperature: 59°F , 15°C
Dew Point: 54°F , 12°C
Humidity: 82%
Barometer: 30.13 inHg , 1020.3 hPa
Clouds: Clear
Visibility: 10 miles , 16 km
2019/09/18 00:56 KWRI 180056Z AUTO 00000KT 10SM CLR 15/12 A3013 RMK AO2 SLP202 T01530115 $
 
KHWV - Shirley, New York, USA
Distance from station: E 64mi, 103km
Updated: 09/17/2019 8:56pm
Clear
Clear
 Wind from ESE
Wind: ESE 3 mph , 6 km/h
Temperature: 61°F , 16°C
Dew Point: 52°F , 11°C
Humidity: 72%
Barometer: 30.15 inHg , 1021 hPa
Clouds: Clear
Visibility: 10 miles , 16 km
2019/09/18 00:56 KHWV 180056Z AUTO 12003KT 10SM CLR 16/11 A3015 RMK AO2 SLP211 T01560111
KMJX - Toms River, New Jersey, USA
Distance from station: S 64mi, 104km
Updated: 09/17/2019 8:56pm
Clear
Clear
 Wind from calm
Wind: Calm
Temperature: 55°F , 13°C
Barometer: 30.14 inHg , 1020.7 hPa
Clouds: Clear
Visibility: 10 miles , 16 km
2019/09/18 00:56 KMJX 180056Z AUTO 00000KT 10SM CLR 13/ A3014 RMK AO2 SLP210 T0133
 
KDYL - Doylestown, Pennsylvania, USA
Distance from station: SW 65mi, 104km
Updated: 09/17/2019 8:54pm
Clear
Clear
 Wind from calm
Wind: Calm
Temperature: 61°F , 16°C
Dew Point: 50°F , 10°C
Humidity: 68%
Barometer: 30.13 inHg , 1020.3 hPa
Clouds: Clear
Visibility: 10 miles , 16 km
2019/09/18 00:54 KDYL 180054Z AUTO 00000KT 10SM CLR 16/10 A3013 RMK AO2 SLP202 T01610100
KOXC - Oxford/Waterbury, Connecticut, USA
Distance from station: NE 65mi, 105km
Updated: 09/17/2019 8:51pm
Clear
Clear
 Wind from NE
Wind: NE 3 mph , 6 km/h
Temperature: 55°F , 13°C
Dew Point: 48°F , 9°C
Humidity: 77%
Barometer: 30.17 inHg , 1021.7 hPa
Clouds: Clear
Visibility: 10 miles , 16 km
2019/09/18 00:51 KOXC 180051Z 05003KT 10SM CLR 13/09 A3017 RMK AO2 SLP225 T01280094
 
KMSV - Monticello, New York, USA
Distance from station: NNW 69mi, 111km
Updated: 09/17/2019 8:56pm
Clear
Clear
 Wind from calm
Wind: Calm
Temperature: 57°F , 14°C
Dew Point: 46°F , 8°C
Humidity: 67%
Barometer: 30.20 inHg , 1022.7 hPa
Clouds: Clear
Visibility: 10 miles , 16 km
2019/09/18 00:56 KMSV 180056Z AUTO 00000KT 10SM CLR 14/08 A3020 RMK AO2 SLP225 T01440078
KHVN - New Haven/Tweed, Connecticut, USA
Distance from station: ENE 70mi, 112km
Updated: 09/17/2019 8:53pm
Partly cloudy
Partly cloudy
 Wind from calm
Wind: Calm
Temperature: 61°F , 16°C
Dew Point: 52°F , 11°C
Humidity: 72%
Barometer: 30.15 inHg , 1021 hPa
Clouds: Partly cloudy
Visibility: 7 miles , 11 km
Cloud details: Partly cloudy 6500 ft
2019/09/18 00:53 KHVN 180053Z 00000KT 7SM SCT065 16/11 A3015 RMK AO2 SLP209 T01560106
 
KMPO - Mt. Pocono, Pennsylvania, USA
Distance from station: WNW 70mi, 113km
Updated: 09/17/2019 8:53pm
Clear
Clear
 Wind from NNW
Wind: NNW 9 mph , 15 km/h
Temperature: 57°F , 14°C
Dew Point: 45°F , 7°C
Humidity: 63%
Barometer: 30.19 inHg , 1022.4 hPa
Clouds: Clear
Visibility: 10 miles , 16 km
2019/09/18 00:53 KMPO 180053Z AUTO 34008KT 10SM CLR 14/07 A3019 RMK AO2 SLP220 T01440067
KPNE - Philadelphia/Ne, Pennsylvania, USA
Distance from station: SW 72mi, 116km
Updated: 09/17/2019 8:54pm
Clear
Clear
 Wind from SE
Wind: SE 3 mph , 6 km/h
Temperature: 68°F , 20°C
Dew Point: 46°F , 8°C
Humidity: 46%
Barometer: 30.14 inHg , 1020.7 hPa
Clouds: Clear
Visibility: 10 miles , 16 km
2019/09/18 00:54 KPNE 180054Z 13003KT 10SM CLR 20/08 A3014 RMK AO2 SLP207 T02000083
 
KABE - Allentown, Pennsylvania, USA
Distance from station: W 73mi, 117km
Updated: 09/17/2019 8:51pm
Clear
Clear
 Wind from calm
Wind: Calm
Temperature: 64°F , 18°C
Dew Point: 46°F , 8°C
Humidity: 52%
Barometer: 30.14 inHg , 1020.7 hPa
Clouds: Clear
Visibility: 10 miles , 16 km
2019/09/18 00:51 KABE 180051Z 00000KT 10SM CLR 18/08 A3014 RMK AO2 SLP204 T01780083
KUKT - Quakertown Arp, Pennsylvania, USA
Distance from station: WSW 74mi, 119km
Updated: 09/17/2019 9:20pm
Clear
Clear
 Wind from calm
Wind: Calm
Temperature: 57°F , 14°C
Dew Point: 54°F , 12°C
Humidity: 88%
Barometer: 30.16 inHg , 1021.3 hPa
Clouds: Clear
Visibility: 10 miles , 16 km
2019/09/18 01:20 KUKT 180120Z AUTO 00000KT 10SM CLR 14/12 A3016 RMK A01
 
KVAY - Mount Holly, New Jersey, USA
Distance from station: SSW 75mi, 120km
Updated: 09/17/2019 8:54pm
Clear
Clear
 Wind from calm
Wind: Calm
Temperature: 61°F , 16°C
Dew Point: 54°F , 12°C
Humidity: 77%
Barometer: 30.13 inHg , 1020.3 hPa
Clouds: Clear
Visibility: 10 miles , 16 km
2019/09/18 00:54 KVAY 180054Z AUTO 00000KT 10SM CLR 16/12 A3013 RMK AO2 SLP201 T01560117
KXLL - Allentown Queen, Pennsylvania, USA
Distance from station: WSW 76mi, 122km
Updated: 09/17/2019 9:15pm
Clear
Clear
 Wind from calm
Wind: Calm
Temperature: 64°F , 18°C
Dew Point: 52°F , 11°C
Humidity: 64%
Barometer: 30.16 inHg , 1021.3 hPa
Clouds: Clear
Visibility: 10 miles , 16 km
2019/09/18 01:15 KXLL 180115Z AUTO 00000KT 10SM CLR 18/11 A3016 RMK AO2
 
KFOK - Westhampton Beac, New York, USA
Distance from station: E 77mi, 124km
Updated: 09/17/2019 8:53pm
Clear
Clear
 Wind from E
Wind: E 5 mph , 7 km/h
Temperature: 61°F , 16°C
Dew Point: 52°F , 11°C
Humidity: 72%
Barometer: 30.16 inHg , 1021.3 hPa
Clouds: Clear
Visibility: 10 miles , 16 km
2019/09/18 00:53 KFOK 180053Z 09004KT 10SM CLR 16/11 A3016 RMK AO2 SLP213 T01610111
KLOM - Philly Wings F, Pennsylvania, USA
Distance from station: SW 79mi, 128km
Updated: 09/17/2019 9:15pm
Clear
Clear
 Wind from calm
Wind: Calm
Temperature: 55°F , 13°C
Dew Point: 54°F , 12°C
Humidity: 94%
Barometer: 30.14 inHg , 1020.7 hPa
Clouds: Clear
Visibility: 10 miles , 16 km
2019/09/18 01:15 KLOM 180115Z AUTO 00000KT 10SM CLR 13/12 A3014 RMK AO2 T01330120
 
KMMK - Meriden, Connecticut, USA
Distance from station: NE 80mi, 128km
Updated: 09/17/2019 8:53pm
Clear
Clear
 Wind from calm
Wind: Calm
Temperature: 54°F , 12°C
Dew Point: 50°F , 10°C
Humidity: 88%
Barometer: 30.15 inHg , 1021 hPa
Clouds: Clear
Visibility: 10 miles , 16 km
2019/09/18 00:53 KMMK 180053Z AUTO 00000KT 10SM CLR 12/10 A3015 RMK AO2 SLP208 T01220100
KPTW - Pottstown, Pennsylvania, USA
Distance from station: WSW 88mi, 141km
Updated: 09/17/2019 8:54pm
Clear
Clear
 Wind from calm
Wind: Calm
Temperature: 61°F , 16°C
Dew Point: 52°F , 11°C
Humidity: 72%
Barometer: 30.15 inHg , 1021 hPa
Clouds: Clear
Visibility: 10 miles , 16 km
2019/09/18 00:54 KPTW 180054Z AUTO 00000KT 10SM CLR 16/11 A3015 RMK AO2 SLP208 T01560111
 
KSNC - Chester, Connecticut, USA
Distance from station: ENE 90mi, 146km
Updated: 09/17/2019 9:15pm
Partly cloudy
Partly cloudy
 Wind from calm
Wind: Calm
Temperature: 55°F , 13°C
Dew Point: 52°F , 11°C
Humidity: 88%
Barometer: 30.16 inHg , 1021.3 hPa
Clouds: Partly cloudy
Visibility: 10 miles , 16 km
Cloud details: Partly cloudy 6500 ft
2019/09/18 01:15 KSNC 180115Z AUTO 00000KT 10SM SCT065 13/11 A3016 RMK AO2
KPHL - Philadelphia, Pennsylvania, USA
Distance from station: SW 91mi, 146km
Updated: 09/17/2019 8:54pm
Clear
Clear
 Wind from SE
Wind: SE 8 mph , 13 km/h
Temperature: 70°F , 21°C
Dew Point: 48°F , 9°C
Humidity: 46%
Barometer: 30.13 inHg , 1020.3 hPa
Clouds: Clear
Visibility: 10 miles , 16 km
2019/09/18 00:54 KPHL 180054Z 14007KT 10SM CLR 21/09 A3013 RMK AO2 SLP202 T02060089 $
 
KAVP - Avoca/Wilkes B., Pennsylvania, USA
Distance from station: WNW 91mi, 147km
Updated: 09/17/2019 8:54pm
Clear
Clear
 Wind from ESE
Wind: ESE 7 mph , 11 km/h
Temperature: 61°F , 16°C
Dew Point: 46°F , 8°C
Humidity: 59%
Barometer: 30.18 inHg , 1022 hPa
Clouds: Clear
Visibility: 10 miles , 16 km
2019/09/18 00:54 KAVP 180054Z 11006KT 10SM CLR 16/08 A3018 RMK AO2 SLP217 T01560083
KHFD - Hartford/Brainar, Connecticut, USA
Distance from station: NE 96mi, 155km
Updated: 09/17/2019 8:53pm
Few Clouds
Few Clouds
 Wind from calm
Wind: Calm
Temperature: 59°F , 15°C
Dew Point: 52°F , 11°C
Humidity: 77%
Barometer: 30.14 inHg , 1020.7 hPa
Clouds: Few Clouds
Visibility: 10 miles , 16 km
Cloud details: Few Clouds 7000 ft
2019/09/18 00:53 KHFD 180053Z 00000KT 10SM FEW070 15/11 A3014 RMK AO2 SLP207 T01500111
 
KHTO - East Hampton, New York, USA
Distance from station: E 96mi, 155km
Updated: 09/17/2019 9:15pm
Clear
Clear
 Wind from calm
Wind: Calm
Temperature: 54°F , 12°C
Dew Point: 50°F , 10°C
Humidity: 88%
Barometer: 30.15 inHg , 1021 hPa
Clouds: Clear
Visibility: 10 miles , 16 km
2019/09/18 01:15 KHTO 180115Z AUTO 00000KT 10SM CLR 12/10 A3015 RMK AO2 T01150102
KACY - Atlantic City, New Jersey, USA
Distance from station: SSW 99mi, 160km
Updated: 09/17/2019 8:54pm
Clear
Clear
 Wind from calm
Wind: Calm
Temperature: 61°F , 16°C
Dew Point: 52°F , 11°C
Humidity: 72%
Barometer: 30.12 inHg , 1020 hPa
Clouds: Clear
Visibility: 10 miles , 16 km
2019/09/18 00:54 KACY 180054Z 00000KT 10SM CLR 16/11 A3012 RMK AO2 SLP200 T01560106